Map Display - KSFO to EGLL
(last flight recorded 27-05-2020, 21:48 - Andrew Siddall)

Aircraft Weights    Units : Maximums
Passengers :    
Cargo : kg kg
Suggested Fuel Load : kg ? kg
 
     
 
Dry Operating : kg    
Total Payload : 0 kg 0 kg
 
Take Off : 132,585 kg kg
 
Expected Landing : 29,700 kg ? kg

Joe Cusick,  B744 ,  G-BNLB,  .

Route Distance Previous
Flights
Average
Duration
Average
Fuel Flow
Average
Fuel Use
KSFO - San Francisco Intl, United States
EGLL - Heathrow, London
4,657 nm 1 09:42 10,607 kg/h 102,885 kg

Current weather :-
2020/05/28 06:36
TAF KSFO 280535Z 2806/2912 29010KT P6SM FEW005
FM281200 29006KT P6SM SCT012
TEMPO 2812/2816 4SM BR BKN005
FM281800 32010KT P6SM FEW015
FM282100 29017KT P6SM FEW200
FM290400 29012KT P6SM SCT200
2020/05/28 06:09
TAF EGLL 280452Z 2806/2912 09008KT CAVOK PROB30
TEMPO 2806/2807 BKN012

Back to Virtual Airline